Time;durP1;ratioP1;P1;durP2;ratioP2;P2;SDS_P1;SDS_P2;PMS_P1;PMS_P2;Temp;Humidity;BMP_temperature;BMP_pressure;BME280_temperature;BME280_humidity;BME280_pressure;Samples;Min_cycle;Max_cycle;Signal;HPM_P1;HPM_P2
2023/01/08 00:00:45;;;;;;;1.83;1.33;;;10.00;99.90;;;;;;5058938;28;20195;-79
2023/01/08 00:03:11;;;;;;;2.10;1.50;;;10.00;99.90;;;;;;5061304;28;20176;-79
2023/01/08 00:05:37;;;;;;;1.83;1.33;;;10.00;99.90;;;;;;5065441;28;20183;-79
2023/01/08 00:08:03;;;;;;;1.43;1.10;;;10.00;99.90;;;;;;5064903;28;20179;-78
2023/01/08 00:10:29;;;;;;;2.57;1.20;;;10.00;99.90;;;;;;5058698;28;20195;-79
2023/01/08 00:12:55;;;;;;;2.40;1.37;;;10.00;99.90;;;;;;5057253;28;20214;-79
2023/01/08 00:15:21;;;;;;;1.80;1.20;;;10.00;99.90;;;;;;5057428;28;20275;-79
2023/01/08 00:17:46;;;;;;;1.47;1.03;;;10.10;99.90;;;;;;5058516;28;20203;-79
2023/01/08 00:20:14;;;;;;;1.03;0.97;;;10.00;99.90;;;;;;5057460;28;20211;-79
2023/01/08 00:22:39;;;;;;;2.30;1.20;;;10.00;99.90;;;;;;5057867;28;20172;-79
2023/01/08 00:25:05;;;;;;;2.10;1.30;;;10.10;99.90;;;;;;5058483;28;20180;-80
2023/01/08 00:27:31;;;;;;;1.10;1.00;;;10.10;99.90;;;;;;5057087;28;20180;-80
2023/01/08 00:29:57;;;;;;;1.27;1.10;;;10.10;99.90;;;;;;5058249;28;20264;-79
2023/01/08 00:32:22;;;;;;;1.40;1.10;;;10.10;99.90;;;;;;5058121;28;20631;-79
2023/01/08 00:34:48;;;;;;;1.30;1.00;;;10.10;99.90;;;;;;5058432;28;20176;-79
2023/01/08 00:37:14;;;;;;;1.50;1.00;;;10.10;99.90;;;;;;5057607;28;20203;-79
2023/01/08 00:39:39;;;;;;;2.27;1.20;;;10.10;99.90;;;;;;5056400;28;20570;-79
2023/01/08 00:42:05;;;;;;;1.73;1.40;;;10.10;99.90;;;;;;5056927;28;20551;-79
2023/01/08 00:44:30;;;;;;;1.30;1.07;;;10.00;99.90;;;;;;5058230;28;20180;-79
2023/01/08 00:46:56;;;;;;;2.03;1.10;;;10.10;99.90;;;;;;5057527;28;20179;-80
2023/01/08 00:49:21;;;;;;;1.83;1.13;;;10.00;99.90;;;;;;5056593;28;20196;-79
2023/01/08 00:51:47;;;;;;;2.07;1.23;;;10.10;99.90;;;;;;5057764;28;20179;-79
2023/01/08 00:54:12;;;;;;;0.80;0.80;;;10.00;99.90;;;;;;5056707;28;20180;-77
2023/01/08 00:56:38;;;;;;;1.40;1.20;;;10.00;99.90;;;;;;5057967;28;20206;-80
2023/01/08 00:59:03;;;;;;;1.07;0.90;;;10.10;99.90;;;;;;5057679;28;20699;-80
2023/01/08 01:01:29;;;;;;;1.47;1.17;;;10.10;99.90;;;;;;5057266;28;20239;-80
2023/01/08 01:03:54;;;;;;;1.33;1.20;;;10.00;99.90;;;;;;5058318;28;20171;-80
2023/01/08 01:06:20;;;;;;;1.83;1.23;;;10.00;99.90;;;;;;5057770;28;20535;-80
2023/01/08 01:08:45;;;;;;;1.23;0.97;;;10.00;99.90;;;;;;5057198;28;20281;-80
2023/01/08 01:11:21;;;;;;;0.90;0.90;;;10.00;99.90;;;;;;5057626;28;20225;-80
2023/01/08 01:13:47;;;;;;;1.90;1.03;;;10.10;99.90;;;;;;5056605;28;20224;-80
2023/01/08 01:16:13;;;;;;;12.20;1.13;;;10.00;99.90;;;;;;5056414;28;20651;-80
2023/01/08 01:18:38;;;;;;;1.40;0.90;;;10.00;99.90;;;;;;5057470;28;20168;-80
2023/01/08 01:21:25;;;;;;;1.50;1.07;;;10.20;99.90;;;;;;5057486;28;20670;-80
2023/01/08 01:23:58;;;;;;;2.47;1.20;;;10.00;99.90;;;;;;5055963;28;20171;-80
2023/01/08 01:26:25;;;;;;;1.10;0.90;;;10.10;99.90;;;;;;5057815;28;20160;-79
2023/01/08 01:28:54;;;;;;;1.20;1.00;;;10.00;99.90;;;;;;5057980;28;20535;-80
2023/01/08 01:31:19;;;;;;;1.20;0.90;;;10.00;99.90;;;;;;5055858;28;20168;-79
2023/01/08 01:33:45;;;;;;;1.10;0.97;;;10.10;99.90;;;;;;5056012;28;20180;-80
2023/01/08 01:36:12;;;;;;;1.10;1.00;;;10.00;99.90;;;;;;5057892;28;20171;-80
2023/01/08 01:38:41;;;;;;;2.13;1.10;;;10.00;99.90;;;;;;5057148;28;20175;-80
2023/01/08 01:41:23;;;;;;;1.40;1.10;;;10.10;99.90;;;;;;5056424;28;20168;-80
2023/01/08 01:43:49;;;;;;;1.93;1.00;;;10.00;99.90;;;;;;5055775;28;20167;-80
2023/01/08 01:46:22;;;;;;;1.10;0.97;;;10.10;99.90;;;;;;5056504;28;20179;-80
2023/01/08 01:48:52;;;;;;;1.10;1.00;;;10.10;99.90;;;;;;5055493;28;20175;-80
2023/01/08 01:51:19;;;;;;;2.23;1.50;;;10.00;99.90;;;;;;5055835;28;20172;-79
2023/01/08 01:53:45;;;;;;;2.50;1.23;;;10.10;99.90;;;;;;5056111;28;20175;-80
2023/01/08 01:56:11;;;;;;;1.20;0.93;;;10.00;99.90;;;;;;5057083;28;20249;-80
2023/01/08 01:58:37;;;;;;;2.90;1.20;;;10.00;99.90;;;;;;5057135;28;20184;-80
2023/01/08 02:01:08;;;;;;;3.00;1.00;;;10.00;99.90;;;;;;5054957;28;20187;-80
2023/01/08 02:03:38;;;;;;;1.80;1.60;;;10.10;99.90;;;;;;5055834;28;20235;-80
2023/01/08 02:06:19;;;;;;;1.83;1.30;;;10.00;99.90;;;;;;5057093;28;20184;-80
2023/01/08 02:09:02;;;;;;;2.03;1.40;;;10.00;99.90;;;;;;5055675;28;20197;-80
2023/01/08 02:11:43;;;;;;;2.33;1.33;;;10.00;99.90;;;;;;5055311;28;20171;-79
2023/01/08 02:14:27;;;;;;;1.47;1.27;;;10.00;99.90;;;;;;5056501;28;20191;-80
2023/01/08 02:16:59;;;;;;;3.10;1.90;;;10.00;99.90;;;;;;5054943;28;20199;-80
2023/01/08 02:19:39;;;;;;;1.43;1.20;;;10.00;99.90;;;;;;5054776;28;20394;-79
2023/01/08 02:22:35;;;;;;;2.00;1.27;;;10.00;99.90;;;;;;5056325;28;20164;-80
2023/01/08 02:25:16;;;;;;;2.33;1.60;;;10.00;99.90;;;;;;5056051;28;20229;-80
2023/01/08 02:27:46;;;;;;;3.27;1.67;;;10.00;99.90;;;;;;5055057;28;20578;-80
2023/01/08 02:30:12;;;;;;;1.70;1.47;;;10.00;99.90;;;;;;5056232;28;20274;-80
2023/01/08 02:32:40;;;;;;;2.60;1.50;;;10.00;99.90;;;;;;5056327;28;20203;-80
2023/01/08 02:35:07;;;;;;;2.17;1.27;;;10.00;99.90;;;;;;5056205;28;20258;-80
2023/01/08 02:37:34;;;;;;;3.60;1.30;;;10.00;99.90;;;;;;5054712;28;20207;-80
2023/01/08 02:40:17;;;;;;;3.63;1.53;;;10.00;99.90;;;;;;5054579;28;20199;-80
2023/01/08 02:43:00;;;;;;;1.97;1.47;;;10.00;99.90;;;;;;5054713;28;20175;-80
2023/01/08 02:45:56;;;;;;;2.50;1.40;;;10.00;99.90;;;;;;5056379;28;20262;-80
2023/01/08 02:48:48;;;;;;;4.80;1.47;;;10.00;99.90;;;;;;5053814;28;20188;-80
2023/01/08 02:51:20;;;;;;;2.50;1.40;;;10.00;99.90;;;;;;5054799;28;20184;-80
2023/01/08 02:53:49;;;;;;;2.83;1.50;;;10.00;99.90;;;;;;5054757;28;20670;-80
2023/01/08 02:56:21;;;;;;;1.90;1.30;;;10.00;99.90;;;;;;5055557;28;20249;-80
2023/01/08 02:58:49;;;;;;;4.67;1.80;;;10.00;99.90;;;;;;5055551;28;20179;-80
2023/01/08 03:01:16;;;;;;;2.27;1.40;;;10.00;99.90;;;;;;5055633;28;20191;-80
2023/01/08 03:03:46;;;;;;;2.30;1.50;;;10.00;99.90;;;;;;5056636;28;20513;-80
2023/01/08 03:06:14;;;;;;;4.80;1.60;;;10.00;99.90;;;;;;5055651;28;20174;-80
2023/01/08 03:08:42;;;;;;;3.57;1.57;;;10.00;99.90;;;;;;5056845;28;20547;-80
2023/01/08 03:11:14;;;;;;;2.40;1.80;;;10.00;99.90;;;;;;5056547;28;20168;-80
2023/01/08 03:13:46;;;;;;;2.43;1.40;;;10.00;99.90;;;;;;5055610;28;20602;-79
2023/01/08 03:16:19;;;;;;;3.20;1.40;;;10.00;99.90;;;;;;5056408;28;20175;-80
2023/01/08 03:18:50;;;;;;;3.27;1.37;;;10.00;99.90;;;;;;5055652;28;20274;-80
2023/01/08 03:21:17;;;;;;;1.83;1.23;;;10.00;99.90;;;;;;5080834;22;20227;-78
2023/01/08 03:23:44;;;;;;;2.77;1.47;;;10.00;99.90;;;;;;5053322;28;20171;-78
2023/01/08 03:26:14;;;;;;;2.57;1.33;;;10.00;99.90;;;;;;5058419;28;20171;-78
2023/01/08 03:28:45;;;;;;;2.87;1.53;;;10.40;99.90;;;;;;5056810;28;20279;-79
2023/01/08 03:31:14;;;;;;;2.67;1.50;;;9.90;99.90;;;;;;5056805;28;20353;-78
2023/01/08 03:33:41;;;;;;;2.13;1.50;;;10.00;99.90;;;;;;5058040;28;20179;-78
2023/01/08 03:36:12;;;;;;;5.23;1.50;;;10.00;99.90;;;;;;5058522;28;20313;-78
2023/01/08 03:38:43;;;;;;;1.90;1.40;;;10.00;99.90;;;;;;5056492;28;20256;-80
2023/01/08 03:41:15;;;;;;;3.83;1.57;;;10.00;99.90;;;;;;5057017;28;20259;-79
2023/01/08 03:43:40;;;;;;;2.67;1.70;;;10.00;99.90;;;;;;5057095;28;20268;-78
2023/01/08 03:46:20;;;;;;;1.83;1.50;;;10.00;99.90;;;;;;5058322;28;20635;-79
2023/01/08 03:48:47;;;;;;;2.50;1.50;;;10.00;99.90;;;;;;5056193;28;20159;-78
2023/01/08 03:51:12;;;;;;;2.20;1.53;;;10.10;99.90;;;;;;5057422;28;20188;-78
2023/01/08 03:53:38;;;;;;;3.83;1.53;;;10.00;99.90;;;;;;5055918;28;20180;-78
2023/01/08 03:56:04;;;;;;;2.23;1.40;;;10.00;99.90;;;;;;5056194;28;20316;-78
2023/01/08 03:58:29;;;;;;;1.93;1.70;;;10.00;99.90;;;;;;5056216;28;20223;-78
2023/01/08 04:00:55;;;;;;;1.43;1.30;;;10.00;99.90;;;;;;5057622;28;20183;-78
2023/01/08 04:03:23;;;;;;;3.10;1.67;;;10.00;99.90;;;;;;5056961;28;20267;-78
2023/01/08 04:05:49;;;;;;;1.80;1.30;;;9.90;99.90;;;;;;5056020;28;20244;-79
2023/01/08 04:08:14;;;;;;;2.80;1.70;;;10.00;99.90;;;;;;5056546;28;20270;-78
2023/01/08 04:10:40;;;;;;;4.47;1.63;;;10.00;99.90;;;;;;5058128;28;20200;-79
2023/01/08 04:13:05;;;;;;;5.17;1.70;;;10.00;99.90;;;;;;5058321;28;20679;-79
2023/01/08 04:15:32;;;;;;;2.00;1.30;;;10.00;99.90;;;;;;5056855;28;20384;-78
2023/01/08 04:17:58;;;;;;;2.67;1.50;;;10.10;99.90;;;;;;5065557;28;20612;-78
2023/01/08 04:20:23;;;;;;;3.57;1.70;;;10.00;99.90;;;;;;5068803;28;20265;-79
2023/01/08 04:22:49;;;;;;;2.40;1.77;;;10.00;99.90;;;;;;5066962;28;20279;-79
2023/01/08 04:25:14;;;;;;;4.57;1.73;;;10.00;99.90;;;;;;5055880;28;20182;-78
2023/01/08 04:27:40;;;;;;;2.07;1.43;;;10.00;99.90;;;;;;5055620;28;20187;-78
2023/01/08 04:30:06;;;;;;;4.80;1.60;;;10.00;99.90;;;;;;5057429;28;20897;-79
2023/01/08 04:32:31;;;;;;;2.33;1.70;;;10.00;99.90;;;;;;5055598;28;20274;-78
2023/01/08 04:34:57;;;;;;;1.90;1.60;;;10.00;99.90;;;;;;5055752;28;20284;-78
2023/01/08 04:37:23;;;;;;;1.80;1.23;;;10.00;99.90;;;;;;5057530;28;20694;-79
2023/01/08 04:39:48;;;;;;;1.40;1.30;;;9.90;99.90;;;;;;5055994;28;20179;-79
2023/01/08 04:42:14;;;;;;;3.10;1.80;;;10.00;99.90;;;;;;5057287;28;20184;-79
2023/01/08 04:44:39;;;;;;;2.23;1.70;;;10.00;99.90;;;;;;5055592;28;20191;-78
2023/01/08 04:47:05;;;;;;;2.90;1.67;;;9.90;99.90;;;;;;5056508;28;20175;-78
2023/01/08 04:49:30;;;;;;;1.80;1.20;;;9.90;99.90;;;;;;5057337;28;20175;-79
2023/01/08 04:51:56;;;;;;;3.23;1.30;;;9.90;99.90;;;;;;5055319;28;20206;-78
2023/01/08 04:54:21;;;;;;;3.40;1.50;;;9.90;99.90;;;;;;5055346;28;20207;-78
2023/01/08 04:56:50;;;;;;;2.23;1.43;;;9.80;99.90;;;;;;5055608;28;20249;-79
2023/01/08 04:59:16;;;;;;;2.50;1.40;;;9.90;99.90;;;;;;5057311;28;20179;-78
2023/01/08 05:01:41;;;;;;;2.57;1.40;;;9.80;99.90;;;;;;5056518;28;20191;-79
2023/01/08 05:04:07;;;;;;;2.20;1.20;;;9.90;99.90;;;;;;5056729;28;20176;-79
2023/01/08 05:06:32;;;;;;;2.43;1.40;;;9.80;99.90;;;;;;5056835;28;20635;-78
2023/01/08 05:08:58;;;;;;;1.20;1.10;;;9.80;99.90;;;;;;5055432;28;20635;-78
2023/01/08 05:11:24;;;;;;;1.83;1.20;;;9.80;99.90;;;;;;5054809;28;20274;-78
2023/01/08 05:13:51;;;;;;;1.60;1.20;;;9.80;99.90;;;;;;5055051;28;20168;-78
2023/01/08 05:16:17;;;;;;;1.77;1.30;;;9.80;99.90;;;;;;5054934;28;20186;-78
2023/01/08 05:18:43;;;;;;;2.67;1.40;;;9.80;99.90;;;;;;5054970;28;20516;-79
2023/01/08 05:21:09;;;;;;;2.20;1.47;;;9.80;99.90;;;;;;5054895;28;20235;-78
2023/01/08 05:23:35;;;;;;;2.97;1.20;;;9.80;99.90;;;;;;5054527;28;20670;-79
2023/01/08 05:26:03;;;;;;;1.87;1.20;;;9.80;99.90;;;;;;5054797;28;20612;-79
2023/01/08 05:28:29;;;;;;;2.43;1.17;;;9.80;99.90;;;;;;5053309;28;20267;-78
2023/01/08 05:30:56;;;;;;;1.90;1.40;;;9.80;99.90;;;;;;5053185;28;20218;-78
2023/01/08 05:33:22;;;;;;;2.40;1.30;;;9.80;99.90;;;;;;5053662;28;20187;-78
2023/01/08 05:35:48;;;;;;;2.17;1.40;;;9.70;99.90;;;;;;5054358;28;20176;-78
2023/01/08 05:38:14;;;;;;;1.20;1.00;;;9.80;99.90;;;;;;5054229;28;20199;-78
2023/01/08 05:40:40;;;;;;;1.83;1.67;;;9.80;99.90;;;;;;5054330;28;20673;-78
2023/01/08 05:43:06;;;;;;;1.40;0.80;;;9.70;99.90;;;;;;5054618;28;20201;-78
2023/01/08 05:45:32;;;;;;;1.30;0.97;;;9.70;99.90;;;;;;5053025;28;20206;-78
2023/01/08 05:47:57;;;;;;;1.87;1.10;;;9.70;99.90;;;;;;5053951;28;20636;-78
2023/01/08 05:50:23;;;;;;;1.60;1.00;;;9.60;99.90;;;;;;5054327;28;20195;-78
2023/01/08 05:52:49;;;;;;;2.23;1.00;;;9.60;99.90;;;;;;5054229;28;20175;-78
2023/01/08 05:55:14;;;;;;;1.10;0.90;;;9.60;99.90;;;;;;5054137;28;20254;-78
2023/01/08 05:57:40;;;;;;;1.50;0.87;;;9.60;99.90;;;;;;5053706;28;20226;-78
2023/01/08 06:00:08;;;;;;;2.30;1.00;;;9.60;99.90;;;;;;5053812;28;20218;-78
2023/01/08 06:02:33;;;;;;;1.40;0.70;;;9.60;99.90;;;;;;5052523;28;20179;-78
2023/01/08 06:04:59;;;;;;;1.33;0.93;;;9.60;99.90;;;;;;5052577;28;20214;-78
2023/01/08 06:07:25;;;;;;;1.17;0.80;;;9.60;99.90;;;;;;5052739;28;20180;-78
2023/01/08 06:09:50;;;;;;;0.80;0.70;;;9.60;99.90;;;;;;5053870;28;20178;-78
2023/01/08 06:12:16;;;;;;;2.90;0.87;;;9.60;99.90;;;;;;5054404;28;20555;-79
2023/01/08 06:14:41;;;;;;;2.33;0.70;;;9.60;99.90;;;;;;5057693;28;20179;-79
2023/01/08 06:17:07;;;;;;;0.80;0.70;;;9.60;99.90;;;;;;5054495;28;20667;-78
2023/01/08 06:19:32;;;;;;;5.30;0.90;;;9.60;99.90;;;;;;5054538;28;20171;-78
2023/01/08 06:21:58;;;;;;;1.10;0.83;;;9.60;99.90;;;;;;5053829;28;20215;-78
2023/01/08 06:24:23;;;;;;;1.60;0.70;;;9.60;99.90;;;;;;5053617;28;20258;-78
2023/01/08 06:26:49;;;;;;;2.07;1.00;;;9.60;99.90;;;;;;5052334;28;20183;-78
2023/01/08 06:29:14;;;;;;;1.20;0.80;;;9.60;99.90;;;;;;5052404;28;20186;-78
2023/01/08 06:31:40;;;;;;;2.43;0.87;;;9.60;99.90;;;;;;5052139;28;20199;-78
2023/01/08 06:34:05;;;;;;;2.03;0.80;;;9.60;99.90;;;;;;5054117;28;20233;-78
2023/01/08 06:36:31;;;;;;;1.30;0.83;;;9.60;99.90;;;;;;5053596;28;20614;-78
2023/01/08 06:38:57;;;;;;;1.03;0.70;;;9.80;99.90;;;;;;5052296;28;20182;-78
2023/01/08 06:41:22;;;;;;;2.00;0.93;;;9.80;99.90;;;;;;5051556;28;20618;-77
2023/01/08 06:43:48;;;;;;;4.47;1.10;;;9.70;99.90;;;;;;5051571;28;20172;-78
2023/01/08 06:46:13;;;;;;;2.23;0.90;;;9.60;99.90;;;;;;5053107;28;20175;-78
2023/01/08 06:48:39;;;;;;;2.97;0.80;;;9.40;99.90;;;;;;5052560;28;20180;-78
2023/01/08 06:51:05;;;;;;;1.33;0.70;;;9.40;99.90;;;;;;5052573;28;20214;-77
2023/01/08 06:53:31;;;;;;;1.17;0.70;;;9.30;99.90;;;;;;5052627;28;20670;-77
2023/01/08 06:55:57;;;;;;;4.43;0.87;;;9.20;99.90;;;;;;5051219;28;20266;-77
2023/01/08 06:58:24;;;;;;;1.63;0.97;;;9.20;99.90;;;;;;5051152;28;20732;-77
2023/01/08 07:00:50;;;;;;;0.90;0.50;;;9.10;99.90;;;;;;5056002;28;20198;-77
2023/01/08 07:03:16;;;;;;;1.77;1.00;;;9.10;99.90;;;;;;5055294;28;20176;-77
2023/01/08 07:05:41;;;;;;;2.20;0.80;;;9.10;99.90;;;;;;5056759;28;20198;-78
2023/01/08 07:08:14;;;;;;;1.63;0.70;;;9.00;99.90;;;;;;5056435;28;20182;-77
2023/01/08 07:10:41;;;;;;;2.73;0.70;;;9.00;99.90;;;;;;5057288;28;20195;-79
2023/01/08 07:13:07;;;;;;;2.43;0.57;;;8.90;99.90;;;;;;5059138;28;20651;-79
2023/01/08 07:15:38;;;;;;;2.07;0.80;;;8.90;99.90;;;;;;5061061;28;20239;-79
2023/01/08 07:18:04;;;;;;;2.07;0.67;;;8.90;99.90;;;;;;5061405;28;20678;-82
2023/01/08 07:20:31;;;;;;;0.93;0.70;;;8.90;99.90;;;;;;5061992;28;20257;-81
2023/01/08 07:23:04;;;;;;;2.50;0.83;;;8.90;99.90;;;;;;5061543;28;20218;-81
2023/01/08 07:25:30;;;;;;;5.23;0.80;;;8.80;99.90;;;;;;5061801;28;20164;-81
2023/01/08 07:27:56;;;;;;;1.77;1.00;;;8.80;99.90;;;;;;5062097;28;20172;-81
2023/01/08 07:30:22;;;;;;;2.27;0.70;;;8.80;99.90;;;;;;5061321;28;20201;-81
2023/01/08 07:32:47;;;;;;;4.20;0.70;;;8.80;99.90;;;;;;5060240;28;20613;-81
2023/01/08 07:35:13;;;;;;;0.93;0.60;;;8.80;99.90;;;;;;5060246;28;20270;-81
2023/01/08 07:37:39;;;;;;;1.67;0.70;;;8.70;99.90;;;;;;5061266;28;20238;-80
2023/01/08 07:40:06;;;;;;;2.93;0.70;;;8.70;99.90;;;;;;5061976;28;20236;-80
2023/01/08 07:42:32;;;;;;;2.13;0.80;;;8.60;99.90;;;;;;5062257;28;20172;-80
2023/01/08 07:44:57;;;;;;;1.77;0.80;;;8.60;99.90;;;;;;5061611;28;20175;-80
2023/01/08 07:47:23;;;;;;;1.07;0.63;;;8.60;99.90;;;;;;5061084;28;20172;-80
2023/01/08 07:49:48;;;;;;;2.00;0.50;;;8.60;99.90;;;;;;5061083;28;20179;-81
2023/01/08 07:52:14;;;;;;;3.23;0.80;;;8.50;99.90;;;;;;5062447;28;20171;-80
2023/01/08 07:54:39;;;;;;;1.50;0.60;;;8.60;99.90;;;;;;5061393;28;20643;-80
2023/01/08 07:57:05;;;;;;;3.13;0.70;;;8.50;99.90;;;;;;5061413;28;20230;-80
2023/01/08 07:59:30;;;;;;;4.80;1.00;;;8.50;99.90;;;;;;5061269;28;20167;-80
2023/01/08 08:01:56;;;;;;;2.53;0.90;;;8.50;99.90;;;;;;5062575;28;20198;-80
2023/01/08 08:04:23;;;;;;;2.50;0.83;;;8.50;99.90;;;;;;5061423;28;20168;-80
2023/01/08 08:06:49;;;;;;;4.97;1.27;;;8.50;99.90;;;;;;5063071;28;20282;-80
2023/01/08 08:09:14;;;;;;;1.67;0.77;;;8.50;99.90;;;;;;5069394;28;20206;-80
2023/01/08 08:11:40;;;;;;;2.20;0.93;;;8.40;99.90;;;;;;5071025;28;20198;-80
2023/01/08 08:14:06;;;;;;;2.83;0.63;;;8.40;99.90;;;;;;5071785;28;20175;-80
2023/01/08 08:16:31;;;;;;;2.17;1.00;;;8.40;99.90;;;;;;5058287;28;20171;-80
2023/01/08 08:18:58;;;;;;;1.60;0.90;;;8.40;99.90;;;;;;5058260;28;20176;-80
2023/01/08 08:21:24;;;;;;;0.93;0.50;;;8.30;99.90;;;;;;5057160;28;20639;-80
2023/01/08 08:23:49;;;;;;;1.30;0.90;;;8.30;99.90;;;;;;5058585;28;20206;-80
2023/01/08 08:26:15;;;;;;;1.83;0.80;;;8.20;99.90;;;;;;5058548;28;20175;-79
2023/01/08 08:28:40;;;;;;;2.00;0.80;;;8.20;99.90;;;;;;5058733;28;20647;-80
2023/01/08 08:31:06;;;;;;;3.23;1.00;;;8.20;99.90;;;;;;5059643;28;20193;-80
2023/01/08 08:33:31;;;;;;;2.30;0.67;;;8.30;99.90;;;;;;5060013;28;20262;-80
2023/01/08 08:35:57;;;;;;;1.87;0.70;;;8.10;99.90;;;;;;5058415;28;20187;-80
2023/01/08 08:38:24;;;;;;;2.87;0.80;;;8.00;99.90;;;;;;5060351;28;20222;-79
2023/01/08 08:40:49;;;;;;;1.80;0.80;;;8.00;99.90;;;;;;5058891;28;20192;-80
2023/01/08 08:43:15;;;;;;;2.47;0.80;;;8.00;99.90;;;;;;5057893;28;20536;-80
2023/01/08 08:45:41;;;;;;;2.87;0.80;;;8.00;99.90;;;;;;5057705;28;20183;-80
2023/01/08 08:48:07;;;;;;;3.53;1.00;;;7.90;99.90;;;;;;5058314;28;20651;-80
2023/01/08 08:50:33;;;;;;;5.60;1.20;;;7.90;99.90;;;;;;5058475;28;20706;-80
2023/01/08 08:53:00;;;;;;;5.90;1.60;;;8.00;99.90;;;;;;5058201;28;20266;-79
2023/01/08 08:55:26;;;;;;;4.57;1.30;;;7.90;99.90;;;;;;5059132;28;20569;-79
2023/01/08 08:57:52;;;;;;;2.63;1.07;;;7.90;99.90;;;;;;5058677;28;20200;-80
2023/01/08 09:00:18;;;;;;;4.13;1.50;;;7.90;99.90;;;;;;5056974;28;20245;-80
2023/01/08 09:02:43;;;;;;;3.43;0.90;;;7.90;99.90;;;;;;5058230;28;20172;-79
2023/01/08 09:05:09;;;;;;;5.57;1.20;;;8.00;99.90;;;;;;5057825;28;20194;-79
2023/01/08 09:07:35;;;;;;;5.57;1.50;;;7.90;99.90;;;;;;5059351;28;20246;-80
2023/01/08 09:10:01;;;;;;;3.77;0.87;;;7.90;99.90;;;;;;5056783;28;20621;-79
2023/01/08 09:12:26;;;;;;;1.80;0.90;;;7.90;99.90;;;;;;5055407;28;20171;-80
2023/01/08 09:14:53;;;;;;;4.37;1.10;;;7.90;99.90;;;;;;5056923;28;20183;-80
2023/01/08 09:17:20;;;;;;;5.13;1.13;;;7.90;99.90;;;;;;5057463;28;20627;-80
2023/01/08 09:19:46;;;;;;;3.27;0.93;;;7.90;99.90;;;;;;5058760;28;20202;-80
2023/01/08 09:22:11;;;;;;;7.00;1.37;;;7.90;99.90;;;;;;5055589;28;20203;-80
2023/01/08 09:24:37;;;;;;;7.13;1.27;;;8.00;99.90;;;;;;5056540;28;20180;-80
2023/01/08 09:27:03;;;;;;;5.77;1.10;;;8.00;99.90;;;;;;5058872;28;20255;-79
2023/01/08 09:29:28;;;;;;;5.77;1.50;;;8.00;99.90;;;;;;5057764;28;20179;-80
2023/01/08 09:31:54;;;;;;;6.40;1.33;;;8.00;99.90;;;;;;5056366;28;20671;-80
2023/01/08 09:34:20;;;;;;;4.17;1.60;;;8.00;99.90;;;;;;5057878;28;20269;-80
2023/01/08 09:36:46;;;;;;;5.97;1.00;;;8.10;99.90;;;;;;5059251;28;20667;-80
2023/01/08 09:39:11;;;;;;;6.03;1.70;;;8.10;99.90;;;;;;5058718;28;20175;-80
2023/01/08 09:41:43;;;;;;;2.73;1.40;;;8.20;99.90;;;;;;5057774;28;20195;-80
2023/01/08 09:44:17;;;;;;;5.93;1.30;;;8.20;99.90;;;;;;5059649;28;20172;-80
2023/01/08 09:46:43;;;;;;;3.83;0.90;;;8.30;99.90;;;;;;5059701;28;20642;-80
2023/01/08 09:49:14;;;;;;;6.60;1.40;;;8.30;99.90;;;;;;5058213;28;20175;-80
2023/01/08 09:51:40;;;;;;;4.37;1.20;;;8.30;99.90;;;;;;5058769;28;20262;-80
2023/01/08 09:54:06;;;;;;;3.87;1.30;;;8.40;99.90;;;;;;5057981;28;20199;-80
2023/01/08 09:56:35;;;;;;;8.83;1.40;;;8.40;99.90;;;;;;5058921;28;20635;-80
2023/01/08 09:59:03;;;;;;;4.73;1.33;;;8.40;99.90;;;;;;5057003;28;20582;-80
2023/01/08 10:01:33;;;;;;;2.90;1.47;;;8.50;99.90;;;;;;5055928;28;20757;-80
2023/01/08 10:04:04;;;;;;;4.63;1.30;;;8.60;99.90;;;;;;5059550;28;20160;-80
2023/01/08 10:06:31;;;;;;;2.40;1.23;;;8.60;99.90;;;;;;5057648;28;20780;-80
2023/01/08 10:08:57;;;;;;;7.40;1.30;;;8.80;99.90;;;;;;5056442;28;20175;-80
2023/01/08 10:11:25;;;;;;;3.23;1.20;;;8.80;99.90;;;;;;5057986;28;20191;-80
2023/01/08 10:13:55;;;;;;;3.57;1.40;;;8.90;99.90;;;;;;5058214;28;20516;-80
2023/01/08 10:16:29;;;;;;;7.73;1.73;;;9.00;99.90;;;;;;5060228;28;20156;-79
2023/01/08 10:18:55;;;;;;;7.77;1.10;;;9.10;99.90;;;;;;5060142;28;20162;-80
2023/01/08 10:21:44;;;;;;;8.27;1.30;;;9.20;99.90;;;;;;5061083;28;20259;-79
2023/01/08 10:24:09;;;;;;;4.43;1.30;;;9.30;99.90;;;;;;5058962;28;20279;-80
2023/01/08 10:26:37;;;;;;;6.07;1.27;;;9.30;99.90;;;;;;5057096;28;20202;-78
2023/01/08 10:29:12;;;;;;;3.90;1.03;;;9.40;99.90;;;;;;5056029;28;20178;-78
2023/01/08 10:31:47;;;;;;;4.20;1.50;;;9.40;99.90;;;;;;5055609;28;20191;-78
2023/01/08 10:34:25;;;;;;;8.10;1.53;;;9.50;99.90;;;;;;5058777;28;20174;-78
2023/01/08 10:36:53;;;;;;;4.23;1.10;;;9.50;99.90;;;;;;5061438;28;20199;-79
2023/01/08 10:39:26;;;;;;;2.20;0.80;;;9.60;99.90;;;;;;5061501;28;20187;-79
2023/01/08 10:41:54;;;;;;;5.57;1.37;;;9.60;99.90;;;;;;5060503;28;20197;-78
2023/01/08 10:44:22;;;;;;;2.27;0.77;;;9.60;99.90;;;;;;5060433;28;20243;-78
2023/01/08 10:46:52;;;;;;;5.33;1.20;;;9.60;99.90;;;;;;5060725;28;20231;-78
2023/01/08 10:49:35;;;;;;;3.47;1.17;;;9.60;99.90;;;;;;5061103;28;20247;-78
2023/01/08 10:52:01;;;;;;;7.00;1.70;;;9.70;99.90;;;;;;5060852;28;20183;-78
2023/01/08 10:54:40;;;;;;;3.47;1.20;;;9.70;99.90;;;;;;5060352;28;20180;-77
2023/01/08 10:57:27;;;;;;;2.20;0.87;;;9.80;99.90;;;;;;5061884;28;20705;-78
2023/01/08 10:59:53;;;;;;;3.20;1.10;;;9.80;99.90;;;;;;5061853;28;20175;-78
2023/01/08 11:02:30;;;;;;;2.10;1.17;;;9.90;99.90;;;;;;5060292;28;20175;-79
2023/01/08 11:04:58;;;;;;;1.90;1.00;;;9.80;99.90;;;;;;5060508;28;20156;-78
2023/01/08 11:07:24;;;;;;;1.90;1.00;;;9.90;99.90;;;;;;5061666;28;20527;-78
2023/01/08 11:09:51;;;;;;;1.57;0.70;;;9.90;99.90;;;;;;5061005;28;20206;-79
2023/01/08 11:12:35;;;;;;;2.10;0.80;;;10.00;99.90;;;;;;5062599;28;20174;-79
2023/01/08 11:15:05;;;;;;;1.50;0.90;;;10.10;99.90;;;;;;5061826;28;20508;-79
2023/01/08 11:17:33;;;;;;;2.30;0.77;;;10.10;99.90;;;;;;5060943;28;20212;-79
2023/01/08 11:20:29;;;;;;;3.60;1.10;;;10.10;99.90;;;;;;5061794;28;20209;-79
2023/01/08 11:23:14;;;;;;;3.77;0.93;;;10.10;99.90;;;;;;5052593;28;20184;-79
2023/01/08 11:25:43;;;;;;;3.47;0.80;;;10.20;99.90;;;;;;5059167;28;20179;-79
2023/01/08 11:28:15;;;;;;;2.57;0.70;;;10.20;99.90;;;;;;5059008;28;20180;-79
2023/01/08 11:30:49;;;;;;;1.97;1.00;;;10.20;99.90;;;;;;5060523;28;20674;-79
2023/01/08 11:33:20;;;;;;;3.33;0.97;;;10.20;99.90;;;;;;5061399;28;20159;-79
2023/01/08 11:35:55;;;;;;;1.87;0.70;;;10.20;99.90;;;;;;5060168;28;20178;-79
2023/01/08 11:38:20;;;;;;;2.30;1.03;;;10.20;99.90;;;;;;5060138;28;20198;-79
2023/01/08 11:41:04;;;;;;;1.77;0.80;;;10.30;99.90;;;;;;5060714;28;20540;-79
2023/01/08 11:43:36;;;;;;;2.27;1.20;;;10.30;99.90;;;;;;5060066;28;20166;-79
2023/01/08 11:46:25;;;;;;;1.20;0.80;;;10.70;99.90;;;;;;5059447;28;20175;-78
2023/01/08 11:49:12;;;;;;;1.77;0.87;;;10.30;99.90;;;;;;5056824;28;20246;-79
2023/01/08 11:52:19;;;;;;;2.63;1.13;;;10.30;99.90;;;;;;5057884;28;20250;-80
2023/01/08 11:55:42;;;;;;;3.77;1.00;;;10.30;99.90;;;;;;5060027;28;20159;-79
2023/01/08 11:58:21;;;;;;;2.10;0.90;;;10.30;99.90;;;;;;5045509;28;20203;-79
2023/01/08 12:00:57;;;;;;;1.70;0.80;;;10.30;99.90;;;;;;5071240;28;20194;-79
2023/01/08 12:04:13;;;;;;;2.60;1.07;;;10.20;99.90;;;;;;5069102;28;20166;-79
2023/01/08 12:06:42;;;;;;;3.90;0.90;;;10.30;99.90;;;;;;5024248;28;20169;-79
2023/01/08 12:09:27;;;;;;;0.47;0.30;;;10.30;99.90;;;;;;5022701;28;20183;-78
2023/01/08 12:12:16;;;;;;;1.40;0.60;;;9.30;99.90;;;;;;5056626;28;20215;-78
2023/01/08 12:15:00;;;;;;;1.73;0.30;;;9.10;99.90;;;;;;5064248;28;20153;-80
2023/01/08 12:17:43;;;;;;;0.40;0.30;;;8.90;99.90;;;;;;5068144;28;20214;-79
2023/01/08 12:20:41;;;;;;;1.63;0.37;;;8.80;99.90;;;;;;5060397;28;20771;-79
2023/01/08 12:23:43;;;;;;;0.63;0.40;;;8.70;99.90;;;;;;5060718;28;20183;-79
2023/01/08 12:26:37;;;;;;;0.67;0.50;;;8.80;99.90;;;;;;5058087;28;20639;-79
2023/01/08 12:29:10;;;;;;;2.77;1.20;;;8.80;99.90;;;;;;5058829;28;20527;-80
2023/01/08 12:32:11;;;;;;;1.60;0.90;;;8.70;99.90;;;;;;5058437;28;20187;-79
2023/01/08 12:34:46;;;;;;;0.67;0.67;;;8.80;99.90;;;;;;5062766;28;20250;-80
2023/01/08 12:37:22;;;;;;;1.40;0.60;;;8.80;99.90;;;;;;5063359;28;20186;-80
2023/01/08 12:39:59;;;;;;;1.10;0.50;;;8.90;99.90;;;;;;5060794;28;20160;-81
2023/01/08 12:42:28;;;;;;;0.63;0.50;;;8.90;99.90;;;;;;5063429;28;20175;-79
2023/01/08 12:44:55;;;;;;;1.37;0.40;;;9.00;99.90;;;;;;5063794;28;20168;-80
2023/01/08 12:47:25;;;;;;;1.23;0.70;;;9.10;99.90;;;;;;5062424;28;20182;-80
2023/01/08 12:50:09;;;;;;;0.60;0.40;;;9.10;99.90;;;;;;5063084;28;20183;-79
2023/01/08 12:53:03;;;;;;;1.63;0.53;;;9.20;99.90;;;;;;5064484;28;20293;-80
2023/01/08 12:55:43;;;;;;;1.03;0.60;;;9.20;99.90;;;;;;5063241;28;20163;-79
2023/01/08 12:58:31;;;;;;;3.63;0.70;;;9.30;99.90;;;;;;5062419;28;20199;-80
2023/01/08 13:01:32;;;;;;;1.07;0.60;;;9.40;99.90;;;;;;5061303;28;20195;-80
2023/01/08 13:03:59;;;;;;;1.53;0.57;;;9.40;99.90;;;;;;5062085;28;20171;-80
2023/01/08 13:06:25;;;;;;;3.30;0.60;;;9.40;99.90;;;;;;5060890;28;20216;-80